Station: Stenhouse Bay

  Atmospheric Gas Attenuation - ITU Rec 676-11   --------------- db/100km ---------------
Date Time Temp RH % AH g/m3 Dew Point Wind Direction Speed kph Gust kph Barometer mB Rainfall Since 9am 24GHz 47GHz 76GHz 122GHz 134GHz 241GHz
22 13:20 22.4 86 17.08 19.9 32 37 1013.1 6.4 37.1 37.6 70.7 186.9 202.7 703.6
22 13:10 22.3 89 17.57 20.5 22 28 1013.1 6.4 38.2 38.6 73.1 193.3 210.5 730.8
22 13:00 22.3 89 17.57 20.4 26 37 1012.2 6.4 38.2 38.5 73.0 193.1 210.4 730.3
22 12:50 22.3 89 17.57 20.5 26 32 1013.1 6.4 38.2 38.6 73.1 193.3 210.5 730.8
22 12:40 22.1 93 18.15 21 24 32 1013.1 6.4 39.4 39.8 76.1 201.2 220.2 764.3
22 12:30 21.6 96 18.21 20.9 20 32 1012.2 6.4 39.6 40.1 76.8 203.1 222.5 772.2
22 12:20 21.2 94 17.42 20.2 24 28 1013.1 6.2 38.0 38.8 73.4 194.2 211.3 733.3
22 12:10 20.9 93 16.94 19.7 20 26 1013.1 6.2 37.0 38.0 71.4 188.8 204.7 710.1
22 12:00 20.8 93 16.84 19.6 19 26 1012.3 6.2 36.8 37.8 71.0 187.7 203.3 705.3
22 11:50 20.8 94 17.02 19.8 19 22 1013.1 6.2 37.2 38.2 71.9 190.1 206.2 715.4
22 11:40 20.7 94 16.92 19.7 15 20 1013.1 6.2 36.9 38.1 71.5 189.1 204.9 711.0
22 11:30 20.7 94 16.92 19.7 22 28 1012.3 6.2 37.0 38.0 71.5 189.0 204.8 710.6
22 11:20 20.6 94 16.82 19.6 15 17 1013.1 6.2 36.7 37.9 71.2 188.1 203.6 706.5
22 11:10 20.5 93 16.55 19.3 19 22 1013.1 6 36.2 37.5 70.0 184.9 199.7 692.8
22 11:00 20.5 93 16.55 19.3 17 22 1012.9 5.8 36.2 37.5 70.0 184.9 199.7 692.7
22 10:50 20.4 92 16.27 19 15 17 1013.1 5.6 35.6 37.0 68.7 181.6 195.6 678.7
22 10:40 20.4 92 16.27 19 15 19 1013.1 5.4 35.6 37.0 68.7 181.6 195.6 678.7
22 10:30 20.2 92 16.08 18.9 9 17 1013.3 5 35.2 36.7 68.0 179.8 193.3 670.5
22 10:20 20.1 90 15.64 18.5 9 9 1013.1 4.8 34.3 35.9 66.1 174.5 186.8 647.9
22 10:10 20.1 90 15.64 18.5 6 6 1013.1 4.2 34.3 35.9 66.1 174.5 186.8 647.9
22 10:00 20.1 89 15.47 18.2 9 11 1013.6 3.4 33.9 35.6 65.3 172.5 184.3 639.2
22 09:50 20.3 87 15.3 18 9 11 1013.1 2 33.5 35.2 64.3 169.9 181.2 628.4
22 09:40 20.4 85 15.04 17.9 7 7 1013.1 0.2 32.9 34.7 63.1 166.5 177.1 614.1
22 09:30 20.7 85 15.3 18.1 4 9 1014.1 0 33.5 35.1 64.0 169.1 180.4 625.5
22 09:20 20.7 84 15.12 18 4 6 1013.1 0 33.1 34.7 63.2 166.8 177.6 615.8
22 09:10 20.6 84 15.03 17.9 6 6 1013.1 0 32.9 34.6 62.8 166.0 176.5 611.9
22 09:00 20.6 85 15.21 18 7 11 1013.6 0 33.3 34.9 63.7 168.2 179.2 621.5
22 08:50 20.6 84 15.03 17.9 11 13 1013.1 0.2 32.9 34.6 62.8 166.0 176.5 611.9
22 08:40 20.5 85 15.12 18 13 17 1013.1 0.2 33.1 34.8 63.3 167.3 178.0 617.4
22 08:30 20.3 85 14.95 17.7 11 17 1013 0.2 32.8 34.6 62.7 165.6 176.0 610.2
22 08:20 20.4 84 14.86 17.6 11 13 1013.1 0.2 32.6 34.4 62.2 164.4 174.4 604.8
22 08:10 20.4 85 15.04 17.8 11 13 1013.1 0.2 32.9 34.7 63.1 166.5 177.1 614.1
22 08:00 20.4 83 14.68 17.4 19 22 1012.8 0.2 32.2 34.0 61.4 162.2 171.7 595.4
22 07:50 20.9 82 14.93 17.7 15 19 1013.1 0.2 32.7 34.3 62.2 164.1 174.3 604.4
22 07:40 21.1 81 14.92 17.7 13 17 1013.1 0.2 32.6 34.2 61.9 163.6 173.7 602.3
22 07:30 21.1 80 14.74 17.5 17 24 1013 0.2 32.2 33.9 61.1 161.4 171.0 593.1
22 07:20 21.2 79 14.64 17.4 19 20 1013.1 0.2 32.0 33.7 60.6 160.0 169.4 587.3
22 07:10 21.2 78 14.45 17.2 22 24 1013.1 0.2 31.6 33.3 59.8 157.8 166.6 577.8
22 07:00 21.2 78 14.45 17.2 20 30 1012.5 0.2 31.6 33.3 59.7 157.7 166.6 577.5
22 06:50 20.7 81 14.58 17.3 22 26 1013.1 0.2 31.9 33.8 60.7 160.4 169.6 588.1
22 06:40 20.4 81 14.33 17 20 24 1013.1 0.2 31.4 33.4 59.9 158.0 166.7 577.8
22 06:30 20.9 77 14.02 16.7 15 22 1011.8 0.2 30.7 32.6 58.1 153.2 161.0 557.9
22 06:20 21.9 73 14.09 16.8 9 17 1013.1 0.2 30.8 32.4 57.7 152.2 160.0 554.7
22 06:10 21.8 73 14 16.7 2 2 1013.1 0.2 30.6 32.3 57.4 151.4 158.9 551.0
22 06:00 21.7 73 13.92 16.6 4 7 1011.2 0.2 30.5 32.1 57.0 150.4 157.8 547.0
22 05:50 21.8 72 13.81 16.5 0 0 1013.1 0.2 30.2 32.0 56.5 149.2 156.3 541.7
22 05:40 21.9 72 13.89 16.6 2 2 1013.1 0.2 30.4 32.1 56.8 149.9 157.2 544.9
22 05:30 21.8 75 14.39 17.2 6 6 1010.8 0.2 31.5 32.9 58.9 155.6 164.2 569.3
22 05:20 21.7 75 14.31 17.2 6 6 1013.1 0.2 31.3 32.9 58.8 155.2 163.5 567.1
22 05:10 22 73 14.17 16.9 0 0 1013.1 0 31.0 32.5 57.9 153.0 160.9 557.9
22 04:50 21.9 73 14.09 16.8 11 11 1013.1 0 30.8 32.4 57.7 152.2 160.0 554.7
22 04:40 22 73 14.17 16.9 13 15 1013.1 0 31.0 32.5 57.9 153.0 160.9 557.9
22 04:30 21.9 73 14.09 16.8 15 19 1011.1 0 30.8 32.3 57.6 152.0 159.8 553.9
22 04:20 21.6 75 14.22 17.1 13 15 1013.1 0 31.1 32.8 58.5 154.3 162.5 563.3
22 04:10 21.2 78 14.45 17.2 15 17 1013.1 0 31.6 33.3 59.8 157.8 166.6 577.8
22 04:00 21 77 14.1 16.8 15 19 1011.3 0 30.9 32.7 58.3 153.9 161.8 561.0
22 03:50 20.8 78 14.12 16.8 17 17 1013.1 0 30.9 32.9 58.6 154.8 162.8 564.2
22 03:40 20.7 79 14.22 16.9 17 17 1013.1 0 31.2 33.1 59.2 156.1 164.4 570.0
22 03:30 20.9 77 14.02 16.7 15 19 1011.9 0 30.7 32.6 58.1 153.2 161.0 558.0
22 03:20 20.8 77 13.94 16.6 17 17 1013.1 0 30.6 32.6 57.8 152.7 160.2 555.2
22 03:10 20.4 80 14.15 16.8 17 19 1013.1 0 31.0 33.1 59.1 155.9 164.0 568.7
22 03:00 20.5 79 14.06 16.7 17 22 1012.3 0 30.8 32.9 58.6 154.6 162.4 563.1
22 02:50 20.8 76 13.76 16.4 19 19 1013.1 0 30.2 32.3 57.1 150.6 157.6 546.3
22 02:40 21.1 73 13.45 16.2 17 19 1013.1 0 29.5 31.6 55.5 146.5 152.6 528.9
22 02:30 21.3 74 13.79 16.5 9 11 1013 0 30.2 32.1 56.8 149.9 157.0 544.2
22 02:20 21.3 74 13.79 16.6 9 11 1013.1 0 30.2 32.1 56.8 150.0 157.0 544.2
22 02:10 21.4 77 14.43 17.2 4 4 1013.1 0 31.6 33.2 59.5 157.2 165.9 575.3
22 02:00 21.6 77 14.6 17.4 9 11 1012.8 0 31.9 33.4 60.1 158.7 167.9 582.2
22 01:50 21.8 75 14.39 17.3 7 7 1013.1 0 31.4 33.0 59.1 155.9 164.5 570.3
22 01:40 21.9 74 14.28 17.2 7 7 1013.1 0 31.2 32.8 58.5 154.4 162.7 564.1
22 01:30 22.1 73 14.25 17 9 11 1012.9 0 31.1 32.6 58.2 153.6 161.8 561.1
22 01:20 22.2 71 13.94 16.7 7 7 1013.1 0 30.5 32.1 56.8 149.9 157.3 545.2
22 01:10 22.3 69 13.62 16.5 7 7 1013.1 0 29.8 31.5 55.4 146.1 152.6 529.0
22 01:00 22.4 69 13.7 16.4 4 6 1013.5 0 29.9 31.6 55.7 146.9 153.6 532.3
22 00:50 22.5 68 13.58 16.3 6 6 1013.1 0 29.7 31.3 55.1 145.3 151.7 525.7
22 00:40 22.5 68 13.58 16.3 4 4 1013.1 0 29.7 31.3 55.1 145.3 151.7 525.7
22 00:30 22.5 67 13.38 16.1 7 11 1013.9 0 29.2 31.0 54.3 143.2 149.0 516.4
22 00:20 22.5 69 13.78 16.5 9 9 1013.1 0 30.1 31.7 55.9 147.5 154.4 535.4
22 00:10 22.8 66 13.41 16.3 2 4 1013.1 0 29.3 30.9 54.1 142.8 148.7 515.6
22 00:00 22.9 65 13.28 16 15 17 1013.9 0 29.0 30.7 53.6 141.3 146.9 509.0
21 23:50 23.2 62 12.89 15.5 15 17 1013.1 0 28.2 29.9 51.7 136.4 141.0 488.5
21 23:40 23.4 60 12.62 15.4 15 17 1013.1 0 27.6 29.4 50.5 133.2 137.0 474.7
21 23:30 23.3 61 12.75 15.4 17 20 1014.1 0 27.9 29.7 51.1 134.8 139.0 481.7
21 23:20 23.4 62 13.04 15.7 20 22 1013.1 0 28.5 30.1 52.2 137.7 142.6 494.2
21 23:10 23.3 67 14.01 16.8 15 17 1013.1 0 30.5 31.8 56.3 148.6 156.0 540.9
21 23:00 23.2 67 13.93 16.7 9 15 1014.3 0 30.4 31.7 56.1 148.1 155.2 538.2
21 22:50 23.3 66 13.8 16.6 6 6 1013.1 0 30.1 31.4 55.4 146.3 153.1 530.8
21 22:40 23.3 64 13.38 16.3 4 6 1013.1 0 29.2 30.7 53.7 141.6 147.4 510.8
21 22:30 23.3 65 13.59 16.4 13 20 1014.6 0 29.6 31.1 54.6 144.1 150.4 521.4
21 22:20 23.4 64 13.46 16.2 19 22 1013.1 0 29.4 30.8 53.9 142.3 148.3 514.0
21 22:10 23.4 64 13.46 16.4 17 19 1013.1 0 29.4 30.8 53.9 142.3 148.3 514.0
21 22:00 23.3 65 13.59 16.4 9 17 1014.1 0 29.6 31.1 54.6 144.0 150.3 521.2
21 21:50 23 67 13.77 16.7 4 6 1013.1 0 30.0 31.5 55.5 146.5 153.3 531.4
21 21:40 23.1 67 13.85 16.6 4 6 1013.1 0 30.2 31.6 55.8 147.2 154.2 534.6
21 21:30 23 67 13.77 16.5 19 24 1013.6 0 30.0 31.5 55.5 146.6 153.3 531.6
21 21:20 23 67 13.77 16.5 19 20 1013.1 0 30.0 31.5 55.5 146.5 153.3 531.4
21 21:10 23.1 66 13.64 16.4 24 28 1013.1 0 29.8 31.2 54.9 144.8 151.3 524.5
21 21:00 22.9 68 13.9 16.7 26 32 1013.5 0 30.3 31.7 56.2 148.2 155.3 538.6
21 20:50 23 67 13.77 16.5 24 28 1013.1 0 30.0 31.5 55.5 146.5 153.3 531.4
21 20:40 23.3 67 14.01 16.8 17 22 1013.1 0 30.5 31.8 56.3 148.6 156.0 540.9

Last Refresh: 22-Jan-2022 13:33:27

Bureau of Meteorology